Time;durP1;ratioP1;P1;durP2;ratioP2;P2;SDS_P1;SDS_P2;PMS_P1;PMS_P2;Temp;Humidity;BMP_temperature;BMP_pressure;BME280_temperature;BME280_humidity;BME280_pressure;Samples;Min_cycle;Max_cycle;Signal;HPM_P1;HPM_P2
2020/12/18 00:01:31;;;;;;;3.73;1.67;;;11.70;99.90;;;;;;5078532;28;20031;-67
2020/12/18 00:03:57;;;;;;;14.03;2.10;;;11.70;99.90;;;;;;5096188;28;20024;-69
2020/12/18 00:06:30;;;;;;;5.63;1.93;;;11.70;99.90;;;;;;5096613;28;20040;-69
2020/12/18 00:08:56;;;;;;;5.35;1.25;;;11.60;99.90;;;;;;5096193;28;20031;-68
2020/12/18 00:11:23;;;;;;;6.20;1.27;;;11.70;99.90;;;;;;5096448;28;20089;-69
2020/12/18 00:13:49;;;;;;;7.20;1.30;;;11.70;99.90;;;;;;5095921;28;20042;-68
2020/12/18 00:16:16;;;;;;;5.47;1.73;;;11.70;99.90;;;;;;5101902;28;20032;-68
2020/12/18 00:18:42;;;;;;;7.53;1.97;;;11.70;99.90;;;;;;5116098;28;20019;-68
2020/12/18 00:21:07;;;;;;;6.23;1.90;;;11.70;99.90;;;;;;5116470;28;20024;-68
2020/12/18 00:23:33;;;;;;;4.17;1.67;;;11.80;99.90;;;;;;5098742;28;20042;-69
2020/12/18 00:25:59;;;;;;;6.17;1.97;;;11.80;99.90;;;;;;5116019;28;20028;-68
2020/12/18 00:28:25;;;;;;;5.50;1.60;;;11.80;99.90;;;;;;5116666;28;20028;-68
2020/12/18 00:30:50;;;;;;;4.07;1.10;;;11.80;99.90;;;;;;5098229;28;20023;-68
2020/12/18 00:33:16;;;;;;;3.83;1.33;;;11.90;99.90;;;;;;5097947;28;20441;-68
2020/12/18 00:35:42;;;;;;;9.87;2.77;;;11.90;99.90;;;;;;5116220;28;20027;-69
2020/12/18 00:38:08;;;;;;;5.97;1.87;;;11.80;99.90;;;;;;5116173;28;20291;-67
2020/12/18 00:40:33;;;;;;;4.57;1.30;;;11.70;99.90;;;;;;5116014;28;20023;-68
2020/12/18 00:42:59;;;;;;;4.30;1.43;;;11.70;99.90;;;;;;5115966;28;20027;-68
2020/12/18 00:45:24;;;;;;;5.60;1.50;;;11.60;99.90;;;;;;5115831;28;20418;-68
2020/12/18 00:47:50;;;;;;;5.20;1.93;;;11.60;99.90;;;;;;5116350;28;20441;-68
2020/12/18 00:50:16;;;;;;;7.60;2.57;;;11.60;99.90;;;;;;5115877;28;20401;-68
2020/12/18 00:52:42;;;;;;;5.47;1.40;;;11.60;99.90;;;;;;5116192;28;20062;-68
2020/12/18 00:55:07;;;;;;;7.63;1.73;;;11.60;99.90;;;;;;5116041;28;20028;-68
2020/12/18 00:57:33;;;;;;;5.70;2.13;;;11.60;99.90;;;;;;5104366;28;20032;-68
2020/12/18 00:59:59;;;;;;;12.97;1.70;;;11.60;99.90;;;;;;5095537;28;20066;-68
2020/12/18 01:02:24;;;;;;;4.87;1.60;;;11.60;99.90;;;;;;5077701;28;20415;-68
2020/12/18 01:04:50;;;;;;;9.07;1.60;;;11.60;99.90;;;;;;5095444;28;20035;-68
2020/12/18 01:07:15;;;;;;;9.40;2.20;;;11.70;99.90;;;;;;5095520;28;20042;-68
2020/12/18 01:09:41;;;;;;;6.47;1.57;;;11.70;99.90;;;;;;5080661;28;20111;-68
2020/12/18 01:12:11;;;;;;;5.30;1.60;;;11.70;99.90;;;;;;5099422;28;20047;-68
2020/12/18 01:14:36;;;;;;;2.50;1.23;;;11.70;99.90;;;;;;5099483;28;20082;-68
2020/12/18 01:17:02;;;;;;;7.47;1.53;;;11.70;99.90;;;;;;5099227;28;20466;-68
2020/12/18 01:19:28;;;;;;;4.43;1.53;;;11.70;99.90;;;;;;5099072;28;20110;-68
2020/12/18 01:21:53;;;;;;;4.90;1.60;;;11.70;99.90;;;;;;5099399;28;20038;-68
2020/12/18 01:24:19;;;;;;;4.23;1.17;;;11.70;99.90;;;;;;5099571;28;20422;-68
2020/12/18 01:26:48;;;;;;;5.70;1.70;;;11.70;99.90;;;;;;5099567;28;20036;-68
2020/12/18 01:29:14;;;;;;;6.30;1.93;;;11.70;99.90;;;;;;5080795;28;20039;-68
2020/12/18 01:31:40;;;;;;;4.03;1.90;;;11.70;99.90;;;;;;5099218;28;20046;-68
2020/12/18 01:34:06;;;;;;;12.20;2.33;;;11.70;99.90;;;;;;5098978;28;20370;-68
2020/12/18 01:36:32;;;;;;;7.63;2.17;;;11.80;99.90;;;;;;5098976;28;20062;-68
2020/12/18 01:38:57;;;;;;;6.13;2.50;;;11.80;99.90;;;;;;5112440;28;20446;-68
2020/12/18 01:41:23;;;;;;;5.07;1.40;;;11.80;99.90;;;;;;5101140;28;20059;-68
2020/12/18 01:43:49;;;;;;;7.30;1.57;;;11.80;99.90;;;;;;5119408;28;20031;-68
2020/12/18 01:46:16;;;;;;;6.23;1.93;;;11.80;99.90;;;;;;5119456;28;20363;-68
2020/12/18 01:48:43;;;;;;;7.67;1.60;;;11.80;99.90;;;;;;5119513;28;20042;-68
2020/12/18 01:51:11;;;;;;;7.07;1.60;;;11.80;99.90;;;;;;5119320;28;20397;-68
2020/12/18 01:53:40;;;;;;;7.40;2.30;;;11.90;99.90;;;;;;5119212;28;20088;-68
2020/12/18 01:56:07;;;;;;;4.53;1.33;;;11.90;99.90;;;;;;5119452;28;20313;-68
2020/12/18 01:58:37;;;;;;;9.70;1.60;;;12.00;99.90;;;;;;5098853;28;20032;-68
2020/12/18 02:01:05;;;;;;;8.53;1.77;;;11.90;99.90;;;;;;5098968;28;20084;-68
2020/12/18 02:03:31;;;;;;;5.87;1.20;;;12.00;99.90;;;;;;5098714;28;20024;-68
2020/12/18 02:06:01;;;;;;;6.60;1.60;;;12.00;99.90;;;;;;5098749;28;20032;-68
2020/12/18 02:08:29;;;;;;;3.03;1.20;;;12.00;99.90;;;;;;5080164;28;20453;-68
2020/12/18 02:10:58;;;;;;;2.80;1.27;;;12.10;99.90;;;;;;5098746;28;20035;-68
2020/12/18 02:13:24;;;;;;;9.57;1.10;;;12.10;99.90;;;;;;5098276;28;20434;-68
2020/12/18 02:15:51;;;;;;;11.17;1.80;;;12.10;99.90;;;;;;5098625;28;20047;-68
2020/12/18 02:18:21;;;;;;;2.90;1.23;;;12.10;99.90;;;;;;5098047;28;20034;-68
2020/12/18 02:20:48;;;;;;;4.27;1.47;;;12.10;99.90;;;;;;5079648;28;20063;-68
2020/12/18 02:23:14;;;;;;;6.00;1.73;;;12.10;99.90;;;;;;5098415;28;20123;-68
2020/12/18 02:25:40;;;;;;;10.47;1.33;;;12.00;99.90;;;;;;5097958;28;20107;-68
2020/12/18 02:28:09;;;;;;;5.83;1.30;;;12.10;99.90;;;;;;5098360;28;20106;-67
2020/12/18 02:30:35;;;;;;;6.13;1.03;;;12.10;99.90;;;;;;5098364;28;20028;-67
2020/12/18 02:33:04;;;;;;;4.10;1.27;;;12.10;99.90;;;;;;5104141;28;20116;-67
2020/12/18 02:35:30;;;;;;;6.33;1.33;;;12.10;99.90;;;;;;5108467;28;20032;-67
2020/12/18 02:37:56;;;;;;;6.67;1.37;;;12.10;99.90;;;;;;5110898;28;20036;-67
2020/12/18 02:40:22;;;;;;;3.53;1.47;;;12.00;99.90;;;;;;5123543;28;20448;-67
2020/12/18 02:42:48;;;;;;;6.73;2.30;;;12.00;99.90;;;;;;5121380;28;20032;-67
2020/12/18 02:45:13;;;;;;;6.60;1.87;;;12.00;99.90;;;;;;5100430;28;20023;-67
2020/12/18 02:47:39;;;;;;;7.83;1.13;;;12.00;99.90;;;;;;5118713;28;20063;-68
2020/12/18 02:50:05;;;;;;;3.67;1.27;;;12.00;99.90;;;;;;5118339;28;20047;-68
2020/12/18 02:52:30;;;;;;;7.00;1.53;;;12.10;99.90;;;;;;5117948;28;20088;-68
2020/12/18 02:54:56;;;;;;;3.27;1.03;;;12.00;99.90;;;;;;5118188;28;20119;-68
2020/12/18 02:57:21;;;;;;;5.10;1.53;;;12.00;99.90;;;;;;5089738;28;20035;-68
2020/12/18 02:59:47;;;;;;;4.27;2.03;;;12.10;99.90;;;;;;5097220;28;20032;-68
2020/12/18 03:02:13;;;;;;;5.83;1.43;;;12.10;99.90;;;;;;5097928;28;20122;-67
2020/12/18 03:04:38;;;;;;;3.60;1.20;;;12.10;99.90;;;;;;5097686;28;20038;-60
2020/12/18 03:07:04;;;;;;;4.73;1.20;;;12.10;99.90;;;;;;5097138;28;20438;-60
2020/12/18 03:09:30;;;;;;;6.20;1.27;;;12.10;99.90;;;;;;5097361;28;20032;-61
2020/12/18 03:11:55;;;;;;;5.53;1.00;;;12.10;99.90;;;;;;5097361;28;20067;-61
2020/12/18 03:14:21;;;;;;;3.43;0.87;;;12.20;99.90;;;;;;5096989;28;20036;-61
2020/12/18 03:16:46;;;;;;;5.30;1.30;;;12.20;99.90;;;;;;5078948;28;20396;-61
2020/12/18 03:19:12;;;;;;;5.80;0.87;;;12.20;99.90;;;;;;5096507;28;20028;-61
2020/12/18 03:21:38;;;;;;;3.93;1.53;;;12.20;99.90;;;;;;5097162;28;20034;-61
2020/12/18 03:24:03;;;;;;;5.27;1.20;;;12.20;99.90;;;;;;5097454;28;20034;-61
2020/12/18 03:26:29;;;;;;;8.37;1.30;;;12.20;99.90;;;;;;5096780;28;20058;-61
2020/12/18 03:28:55;;;;;;;5.33;1.20;;;12.20;99.90;;;;;;5096875;28;20445;-60
2020/12/18 03:31:21;;;;;;;5.43;1.20;;;12.20;99.90;;;;;;5096081;28;20032;-60
2020/12/18 03:33:46;;;;;;;2.33;1.13;;;12.20;99.90;;;;;;5096894;28;20324;-60
2020/12/18 03:36:12;;;;;;;4.97;1.23;;;12.20;99.90;;;;;;5096769;28;20045;-61
2020/12/18 03:38:38;;;;;;;1.77;0.60;;;12.20;99.90;;;;;;5096554;28;20329;-61
2020/12/18 03:41:07;;;;;;;3.20;0.80;;;12.20;99.90;;;;;;5096830;28;20051;-60
2020/12/18 03:43:33;;;;;;;6.33;1.33;;;12.30;99.90;;;;;;5097133;28;20036;-61
2020/12/18 03:45:59;;;;;;;2.90;0.50;;;12.30;99.90;;;;;;5096552;28;20115;-60
2020/12/18 03:48:24;;;;;;;2.43;0.93;;;12.30;99.90;;;;;;5096666;28;20119;-60
2020/12/18 03:50:50;;;;;;;5.30;1.57;;;12.20;99.90;;;;;;5096213;28;20093;-61
2020/12/18 03:53:16;;;;;;;0.77;0.30;;;12.20;99.90;;;;;;5096915;28;20028;-60
2020/12/18 03:55:41;;;;;;;1.57;0.37;;;12.30;99.90;;;;;;5096142;28;20382;-61
2020/12/18 03:58:07;;;;;;;1.23;0.40;;;12.20;99.90;;;;;;5104736;28;20028;-60
2020/12/18 04:00:33;;;;;;;1.30;0.40;;;12.20;99.90;;;;;;5096090;28;20032;-60
2020/12/18 04:02:58;;;;;;;1.20;0.30;;;12.20;99.90;;;;;;5096756;28;20097;-60
2020/12/18 04:05:24;;;;;;;1.03;0.20;;;12.30;99.90;;;;;;5096605;28;20032;-60
2020/12/18 04:07:49;;;;;;;1.67;0.30;;;12.20;99.90;;;;;;5096317;28;20055;-61
2020/12/18 04:10:15;;;;;;;0.87;0.30;;;12.20;99.90;;;;;;5077961;28;20028;-61
2020/12/18 04:12:41;;;;;;;1.60;0.27;;;12.20;99.90;;;;;;5096129;28;20081;-60
2020/12/18 04:15:06;;;;;;;1.63;1.00;;;12.30;99.90;;;;;;5095952;28;20044;-61
2020/12/18 04:17:32;;;;;;;1.30;0.40;;;12.20;99.90;;;;;;5096337;28;20081;-60
2020/12/18 04:19:57;;;;;;;2.03;0.60;;;12.20;99.90;;;;;;5095636;28;20409;-60
2020/12/18 04:22:23;;;;;;;2.10;0.40;;;12.20;99.90;;;;;;5095982;28;20028;-61
2020/12/18 04:24:49;;;;;;;3.47;0.40;;;12.10;99.90;;;;;;5095825;28;20024;-60
2020/12/18 04:27:14;;;;;;;0.50;0.30;;;12.20;99.90;;;;;;5096648;28;20123;-61
2020/12/18 04:29:40;;;;;;;1.73;0.20;;;12.20;99.90;;;;;;5095563;28;20077;-60
2020/12/18 04:32:06;;;;;;;0.73;0.20;;;12.20;99.90;;;;;;5096418;28;20035;-60
2020/12/18 04:34:32;;;;;;;0.60;0.30;;;12.20;99.90;;;;;;5096015;28;20442;-61
2020/12/18 04:36:57;;;;;;;2.90;0.20;;;12.10;99.90;;;;;;5095665;28;20028;-61
2020/12/18 04:39:23;;;;;;;1.50;0.20;;;12.20;99.90;;;;;;5096230;28;20032;-61
2020/12/18 04:41:49;;;;;;;1.50;0.20;;;12.20;99.90;;;;;;5077641;28;20050;-60
2020/12/18 04:44:15;;;;;;;0.50;0.30;;;12.20;99.90;;;;;;5099780;28;20047;-60
2020/12/18 04:46:43;;;;;;;1.27;0.20;;;12.20;99.90;;;;;;5099768;28;20051;-60
2020/12/18 04:49:09;;;;;;;0.40;0.20;;;12.20;99.90;;;;;;5099954;28;20108;-61
2020/12/18 04:51:42;;;;;;;1.20;0.50;;;12.20;99.90;;;;;;5099949;28;20107;-60
2020/12/18 04:54:10;;;;;;;0.47;0.20;;;12.20;99.90;;;;;;5100077;28;20035;-61
2020/12/18 04:56:42;;;;;;;0.80;0.10;;;12.30;99.90;;;;;;5102291;28;20425;-60
2020/12/18 04:59:08;;;;;;;1.10;0.23;;;12.20;99.90;;;;;;5099371;28;20023;-60
2020/12/18 05:01:34;;;;;;;5.00;0.20;;;12.30;99.90;;;;;;5081313;28;20081;-60
2020/12/18 05:04:01;;;;;;;1.03;0.40;;;12.30;99.90;;;;;;5099463;28;20462;-61
2020/12/18 05:06:27;;;;;;;0.27;0.10;;;12.30;99.90;;;;;;5081680;28;20032;-60
2020/12/18 05:08:53;;;;;;;1.90;0.30;;;12.30;99.90;;;;;;5098915;28;20393;-61
2020/12/18 05:11:21;;;;;;;1.17;0.20;;;12.30;99.90;;;;;;5099290;28;20099;-61
2020/12/18 05:13:50;;;;;;;1.27;0.40;;;12.30;99.90;;;;;;5099531;28;20024;-61
2020/12/18 05:16:17;;;;;;;1.70;0.10;;;12.30;99.90;;;;;;5099427;28;20028;-61
2020/12/18 05:18:43;;;;;;;1.40;0.40;;;12.30;99.90;;;;;;5099120;28;20081;-61
2020/12/18 05:21:09;;;;;;;0.80;0.30;;;12.30;99.90;;;;;;5099382;28;20331;-61
2020/12/18 05:23:39;;;;;;;1.70;0.30;;;12.30;99.90;;;;;;5081226;28;20024;-60
2020/12/18 05:26:09;;;;;;;2.07;0.40;;;12.30;99.90;;;;;;5099241;28;20064;-61
2020/12/18 05:28:48;;;;;;;0.90;0.10;;;12.30;99.90;;;;;;5099251;28;20028;-61
2020/12/18 05:31:18;;;;;;;1.70;0.30;;;12.20;99.90;;;;;;5099214;28;20024;-61
2020/12/18 05:33:46;;;;;;;4.77;0.50;;;12.20;99.90;;;;;;5081439;28;20487;-60
2020/12/18 05:36:12;;;;;;;2.00;0.23;;;12.20;99.90;;;;;;5098859;28;20028;-61
2020/12/18 05:38:39;;;;;;;1.93;0.23;;;12.20;99.90;;;;;;5099197;28;20024;-61
2020/12/18 05:41:06;;;;;;;1.27;0.60;;;12.20;99.90;;;;;;5098602;28;20055;-61
2020/12/18 05:43:40;;;;;;;1.20;0.33;;;12.10;99.90;;;;;;5099094;28;20024;-60
2020/12/18 05:46:22;;;;;;;2.92;0.30;;;12.10;99.90;;;;;;5099079;28;20019;-61
2020/12/18 05:49:07;;;;;;;1.67;0.30;;;12.20;99.90;;;;;;5099183;28;20133;-60
2020/12/18 05:51:38;;;;;;;1.20;0.33;;;12.10;99.90;;;;;;5098749;28;20077;-61
2020/12/18 05:54:15;;;;;;;2.37;0.37;;;12.20;99.90;;;;;;5098461;28;20036;-61
2020/12/18 05:56:42;;;;;;;1.20;0.30;;;12.20;99.90;;;;;;5102799;28;20020;-61
2020/12/18 05:59:10;;;;;;;1.80;0.50;;;12.20;99.90;;;;;;5090542;28;20157;-61
2020/12/18 06:01:46;;;;;;;0.87;0.30;;;12.20;99.90;;;;;;5080213;28;20016;-60
2020/12/18 06:04:20;;;;;;;2.80;0.20;;;12.20;99.90;;;;;;5098879;28;20031;-60
2020/12/18 06:06:49;;;;;;;3.67;0.30;;;12.20;99.90;;;;;;5098540;28;20035;-60
2020/12/18 06:09:23;;;;;;;1.63;0.30;;;12.20;99.90;;;;;;5099182;28;20415;-60
2020/12/18 06:11:49;;;;;;;;;;;12.20;99.90;;;;;;5099024;28;20028;-60
2020/12/18 06:14:16;;;;;;;1.10;0.30;;;12.20;99.90;;;;;;5098361;28;20382;-60
2020/12/18 06:16:50;;;;;;;0.57;0.20;;;12.10;99.90;;;;;;5098409;28;20396;-60
2020/12/18 06:19:20;;;;;;;1.83;0.50;;;12.10;99.90;;;;;;5080151;28;20379;-60
2020/12/18 06:22:10;;;;;;;1.10;0.60;;;12.00;99.90;;;;;;5098061;28;20020;-60
2020/12/18 06:24:41;;;;;;;1.73;0.30;;;11.90;99.90;;;;;;5098582;28;20024;-60
2020/12/18 06:27:11;;;;;;;1.37;0.40;;;11.90;99.90;;;;;;5079294;28;20339;-60
2020/12/18 06:29:37;;;;;;;1.50;0.30;;;12.00;99.90;;;;;;5098200;28;20213;-60
2020/12/18 06:32:22;;;;;;;1.77;0.30;;;11.90;99.90;;;;;;5097763;28;20052;-60
2020/12/18 06:34:48;;;;;;;1.17;0.30;;;11.90;99.90;;;;;;5098377;28;20028;-60
2020/12/18 06:37:35;;;;;;;1.90;0.27;;;12.00;99.90;;;;;;5097549;28;20024;-60
2020/12/18 06:40:00;;;;;;;3.37;0.40;;;12.00;99.90;;;;;;5118163;28;20039;-60
2020/12/18 06:42:30;;;;;;;1.30;0.60;;;12.00;99.90;;;;;;5115618;28;20147;-60
2020/12/18 06:44:57;;;;;;;3.03;0.30;;;12.00;99.90;;;;;;5100167;28;20035;-60
2020/12/18 06:47:26;;;;;;;1.37;0.20;;;12.10;99.90;;;;;;5117932;28;20058;-60
2020/12/18 06:50:10;;;;;;;2.17;0.70;;;12.10;99.90;;;;;;5118340;28;20107;-61
2020/12/18 06:52:56;;;;;;;1.13;0.57;;;12.10;99.90;;;;;;5117991;28;20329;-60
2020/12/18 06:55:25;;;;;;;1.67;0.40;;;12.10;99.90;;;;;;5117886;28;20307;-60
2020/12/18 06:58:05;;;;;;;3.40;3.13;;;12.10;99.90;;;;;;5103472;28;20035;-60
2020/12/18 07:00:32;;;;;;;1.23;0.87;;;12.10;99.90;;;;;;5097766;28;20035;-60
2020/12/18 07:02:58;;;;;;;2.50;0.50;;;12.10;99.90;;;;;;5097282;28;20099;-60
2020/12/18 07:05:28;;;;;;;0.83;0.30;;;12.10;99.90;;;;;;5097658;28;20047;-60
2020/12/18 07:07:56;;;;;;;2.33;0.30;;;12.10;99.90;;;;;;5096688;28;20115;-60
2020/12/18 07:10:35;;;;;;;2.20;0.33;;;12.00;99.90;;;;;;5097905;28;20036;-60
2020/12/18 07:13:01;;;;;;;1.20;0.50;;;12.10;99.90;;;;;;5097021;28;20024;-60
2020/12/18 07:15:45;;;;;;;1.53;0.77;;;12.10;99.90;;;;;;5097471;28;20036;-60
2020/12/18 07:18:21;;;;;;;1.80;0.50;;;12.10;99.90;;;;;;5097002;28;20024;-61
2020/12/18 07:20:48;;;;;;;1.93;0.90;;;12.10;99.90;;;;;;5097729;28;20024;-60
2020/12/18 07:23:14;;;;;;;3.43;0.60;;;12.10;99.90;;;;;;5096819;28;20090;-60
2020/12/18 07:25:40;;;;;;;2.70;1.03;;;12.20;99.90;;;;;;5078919;28;20449;-60
2020/12/18 07:28:06;;;;;;;1.23;0.70;;;12.10;99.90;;;;;;5097075;28;20021;-60
2020/12/18 07:30:36;;;;;;;1.30;0.33;;;12.10;99.90;;;;;;5096696;28;20024;-60
2020/12/18 07:33:02;;;;;;;2.23;1.03;;;12.10;99.90;;;;;;5097272;28;20027;-60
2020/12/18 07:35:27;;;;;;;2.23;0.70;;;12.10;99.90;;;;;;5096592;28;20418;-61
2020/12/18 07:37:53;;;;;;;0.63;0.30;;;12.10;99.90;;;;;;5096547;28;20040;-61
2020/12/18 07:40:19;;;;;;;3.33;0.87;;;12.10;99.90;;;;;;5096969;28;20024;-61
2020/12/18 07:42:44;;;;;;;3.40;0.40;;;12.10;99.90;;;;;;5094630;28;20362;-61
2020/12/18 07:45:10;;;;;;;1.70;0.40;;;12.10;99.90;;;;;;5095090;28;20024;-61
2020/12/18 07:47:39;;;;;;;4.40;0.90;;;12.10;99.90;;;;;;5078159;28;20036;-60
2020/12/18 07:50:07;;;;;;;1.50;0.40;;;12.10;99.90;;;;;;5097017;28;20032;-60
2020/12/18 07:52:36;;;;;;;1.17;0.30;;;12.20;99.90;;;;;;5096536;28;20306;-60
2020/12/18 07:55:03;;;;;;;0.60;0.27;;;12.20;99.90;;;;;;5078588;28;20027;-60
2020/12/18 07:57:29;;;;;;;1.30;0.53;;;12.30;99.90;;;;;;5105023;28;20027;-61
2020/12/18 08:00:08;;;;;;;1.43;0.23;;;12.30;99.90;;;;;;5096887;28;20081;-60
2020/12/18 08:02:34;;;;;;;1.27;0.40;;;12.30;99.90;;;;;;5096376;28;20059;-60
2020/12/18 08:05:00;;;;;;;1.33;0.40;;;12.30;99.90;;;;;;5096479;28;20059;-60
2020/12/18 08:07:29;;;;;;;1.93;0.30;;;12.20;99.90;;;;;;5096459;28;20427;-60
2020/12/18 08:10:00;;;;;;;1.40;0.40;;;12.20;99.90;;;;;;5102780;28;20023;-60
2020/12/18 08:12:30;;;;;;;1.23;0.30;;;12.30;99.90;;;;;;5116426;28;20361;-61
2020/12/18 08:15:12;;;;;;;1.53;0.50;;;12.30;99.90;;;;;;5116580;28;20114;-60
2020/12/18 08:17:39;;;;;;;1.10;0.50;;;12.30;99.90;;;;;;5116362;28;20027;-60
2020/12/18 08:20:06;;;;;;;1.47;0.63;;;12.30;99.90;;;;;;5115862;28;20051;-61
2020/12/18 08:22:35;;;;;;;4.23;0.50;;;12.30;99.90;;;;;;5116558;28;20137;-59
2020/12/18 08:25:02;;;;;;;1.13;0.60;;;12.30;99.90;;;;;;5116283;28;20027;-60
2020/12/18 08:27:33;;;;;;;2.57;0.50;;;12.30;99.90;;;;;;5115745;28;20181;-60
2020/12/18 08:30:00;;;;;;;4.07;0.70;;;12.40;99.90;;;;;;5116335;28;20031;-60
2020/12/18 08:32:28;;;;;;;2.80;0.60;;;12.40;99.90;;;;;;5116619;28;20414;-60
2020/12/18 08:35:04;;;;;;;4.37;1.13;;;12.40;99.90;;;;;;5115994;28;20081;-60
2020/12/18 08:37:30;;;;;;;4.00;0.60;;;12.40;99.90;;;;;;5116440;28;20027;-60
2020/12/18 08:39:56;;;;;;;3.40;1.37;;;12.40;99.90;;;;;;5097415;28;20069;-60
2020/12/18 08:42:22;;;;;;;3.13;0.93;;;12.40;99.90;;;;;;5094657;28;20067;-60
2020/12/18 08:44:48;;;;;;;3.70;0.80;;;12.40;99.90;;;;;;5095834;28;20039;-61
2020/12/18 08:47:24;;;;;;;7.87;1.23;;;12.40;99.90;;;;;;5095488;28;20365;-61
2020/12/18 08:49:52;;;;;;;3.07;0.77;;;12.40;99.90;;;;;;5095864;28;20028;-60
2020/12/18 08:52:29;;;;;;;3.30;0.90;;;12.50;99.90;;;;;;5095347;28;20031;-60
2020/12/18 08:55:06;;;;;;;5.13;1.20;;;12.50;99.90;;;;;;5095635;28;20030;-60
2020/12/18 08:57:33;;;;;;;6.20;1.13;;;12.50;99.90;;;;;;5082944;28;20039;-61
2020/12/18 09:00:12;;;;;;;4.07;0.87;;;12.50;99.90;;;;;;5075769;28;20021;-60
2020/12/18 09:02:59;;;;;;;2.73;0.70;;;12.50;99.90;;;;;;5075372;28;20415;-60
2020/12/18 09:05:33;;;;;;;5.03;0.93;;;12.50;99.90;;;;;;5081190;28;20022;-60
2020/12/18 09:08:16;;;;;;;3.73;1.63;;;12.50;99.90;;;;;;5096102;28;20138;-60
2020/12/18 09:10:43;;;;;;;3.92;0.68;;;12.50;99.90;;;;;;5095687;28;20031;-59
2020/12/18 09:13:14;;;;;;;2.23;0.60;;;12.50;99.90;;;;;;5094562;28;20104;-59
2020/12/18 09:15:41;;;;;;;1.43;0.40;;;12.50;99.90;;;;;;5089329;28;20035;-59
2020/12/18 09:18:12;;;;;;;4.30;0.90;;;12.60;99.90;;;;;;5092879;28;20093;-59
2020/12/18 09:20:43;;;;;;;4.23;0.53;;;12.60;99.90;;;;;;5075025;28;20024;-58
2020/12/18 09:23:11;;;;;;;3.30;0.70;;;12.60;99.90;;;;;;5092491;28;20016;-60
2020/12/18 09:25:40;;;;;;;3.30;0.67;;;12.60;99.90;;;;;;5076161;28;20021;-60
2020/12/18 09:28:19;;;;;;;2.80;0.80;;;12.70;99.90;;;;;;5092662;28;20062;-59
2020/12/18 09:31:07;;;;;;;1.53;0.30;;;12.70;99.90;;;;;;5093070;28;20024;-60
2020/12/18 09:33:38;;;;;;;3.73;0.73;;;12.70;99.90;;;;;;5085106;28;20119;-59
2020/12/18 09:36:07;;;;;;;1.67;0.30;;;12.70;99.90;;;;;;5098315;28;20118;-59
2020/12/18 09:38:37;;;;;;;1.17;0.50;;;12.70;99.90;;;;;;5098667;28;20292;-59
2020/12/18 09:41:05;;;;;;;2.87;0.67;;;12.70;99.90;;;;;;5098648;28;20134;-60
2020/12/18 09:43:31;;;;;;;2.97;1.40;;;12.70;99.90;;;;;;5119330;28;20019;-60
2020/12/18 09:45:57;;;;;;;1.67;0.43;;;12.70;99.90;;;;;;5101389;28;20073;-60
2020/12/18 09:48:23;;;;;;;2.00;0.30;;;12.60;99.90;;;;;;5119341;28;20039;-60
2020/12/18 09:50:50;;;;;;;3.63;0.57;;;12.60;99.90;;;;;;5119278;28;20330;-60
2020/12/18 09:53:16;;;;;;;2.73;0.50;;;12.60;99.90;;;;;;5118744;28;20022;-58
2020/12/18 09:55:42;;;;;;;2.70;0.20;;;12.60;99.90;;;;;;5101144;28;20019;-58
2020/12/18 09:58:08;;;;;;;2.03;0.53;;;12.60;99.90;;;;;;5084609;28;20097;-59
2020/12/18 10:00:34;;;;;;;0.70;0.30;;;12.60;99.90;;;;;;5098896;28;20032;-59
2020/12/18 10:02:59;;;;;;;2.10;0.40;;;12.60;99.90;;;;;;5098774;28;20044;-60
2020/12/18 10:05:26;;;;;;;2.30;0.60;;;12.70;99.90;;;;;;5098530;28;20024;-60
2020/12/18 10:07:52;;;;;;;1.20;0.30;;;12.80;99.90;;;;;;5098681;28;20031;-60
2020/12/18 10:10:19;;;;;;;0.87;0.30;;;12.90;99.90;;;;;;5098075;28;20028;-57
2020/12/18 10:12:45;;;;;;;0.53;0.20;;;12.90;99.90;;;;;;5098333;28;20057;-58
2020/12/18 10:15:10;;;;;;;1.40;0.30;;;13.00;99.90;;;;;;5098603;28;20032;-58
2020/12/18 10:17:36;;;;;;;1.03;0.30;;;13.10;99.90;;;;;;5080113;28;20032;-58
2020/12/18 10:20:03;;;;;;;1.13;0.50;;;13.10;99.90;;;;;;5098037;28;20427;-58
2020/12/18 10:22:29;;;;;;;1.50;0.40;;;13.00;99.90;;;;;;5098438;28;20027;-59
2020/12/18 10:24:54;;;;;;;1.73;0.50;;;12.90;99.90;;;;;;5098451;28;20069;-58
2020/12/18 10:27:20;;;;;;;1.77;0.40;;;12.90;99.90;;;;;;5097854;28;20024;-59
2020/12/18 10:29:46;;;;;;;2.00;0.73;;;12.90;99.90;;;;;;5080489;28;20024;-59
2020/12/18 10:32:11;;;;;;;3.93;0.60;;;12.90;99.90;;;;;;5098425;28;20028;-59
2020/12/18 10:34:37;;;;;;;1.53;0.50;;;12.90;99.90;;;;;;5098194;28;20031;-58
2020/12/18 10:37:03;;;;;;;0.93;0.30;;;12.90;99.90;;;;;;5098061;28;20478;-59
2020/12/18 10:39:28;;;;;;;3.07;0.30;;;12.90;99.90;;;;;;5097536;28;20031;-59
2020/12/18 10:41:54;;;;;;;3.23;0.57;;;12.90;99.90;;;;;;5097586;28;20043;-58
2020/12/18 10:44:21;;;;;;;0.53;0.30;;;12.90;99.90;;;;;;5097937;28;20078;-59
2020/12/18 10:46:50;;;;;;;2.87;0.70;;;12.90;99.90;;;;;;5079606;28;20126;-59
2020/12/18 10:49:17;;;;;;;2.93;1.37;;;13.00;99.90;;;;;;5097876;28;20445;-59
2020/12/18 10:51:44;;;;;;;1.70;0.40;;;13.00;99.90;;;;;;5097224;28;20032;-59
2020/12/18 10:54:10;;;;;;;0.90;0.30;;;13.00;99.90;;;;;;5103849;28;20041;-59
2020/12/18 10:56:44;;;;;;;1.60;0.40;;;13.00;99.90;;;;;;5095556;28;20067;-58
2020/12/18 10:59:11;;;;;;;0.63;0.30;;;13.00;99.90;;;;;;5098024;28;20437;-59
2020/12/18 11:01:37;;;;;;;2.03;0.50;;;13.00;99.90;;;;;;5110968;28;20080;-61
2020/12/18 11:04:03;;;;;;;1.37;0.33;;;13.00;99.90;;;;;;5106338;28;20027;-59
2020/12/18 11:06:29;;;;;;;2.77;0.33;;;13.00;99.90;;;;;;5109948;28;20450;-59
2020/12/18 11:08:55;;;;;;;0.60;0.30;;;12.90;99.90;;;;;;5111666;28;20020;-59
2020/12/18 11:11:21;;;;;;;2.30;0.40;;;12.90;99.90;;;;;;5079516;28;20039;-59
2020/12/18 11:13:46;;;;;;;2.93;0.40;;;12.80;99.90;;;;;;5116451;28;20149;-59
2020/12/18 11:16:12;;;;;;;1.00;0.30;;;12.80;99.90;;;;;;5117580;28;20472;-59
2020/12/18 11:18:38;;;;;;;1.90;0.77;;;12.70;99.90;;;;;;5117064;28;20024;-59
2020/12/18 11:21:05;;;;;;;2.47;0.50;;;12.70;99.90;;;;;;5117100;28;20338;-59
2020/12/18 11:23:32;;;;;;;0.53;0.20;;;12.70;99.90;;;;;;5108426;28;20165;-59
2020/12/18 11:25:57;;;;;;;0.80;0.27;;;12.70;99.90;;;;;;5104287;28;20027;-59
2020/12/18 11:28:23;;;;;;;1.63;0.20;;;12.70;99.90;;;;;;5109905;28;20027;-59
2020/12/18 11:30:50;;;;;;;1.20;0.20;;;12.70;99.90;;;;;;5115197;28;20445;-58
2020/12/18 11:33:16;;;;;;;1.63;0.30;;;12.80;99.90;;;;;;5116738;28;20097;-61
2020/12/18 11:35:41;;;;;;;2.93;0.40;;;12.80;99.90;;;;;;5092004;28;20031;-59
2020/12/18 11:38:07;;;;;;;0.70;0.23;;;12.90;99.90;;;;;;5114997;28;20020;-59
2020/12/18 11:40:34;;;;;;;1.77;0.73;;;12.80;99.90;;;;;;5110400;28;20097;-59
2020/12/18 11:42:59;;;;;;;2.53;0.53;;;12.80;99.90;;;;;;5109806;28;20400;-59
2020/12/18 11:45:25;;;;;;;2.23;0.60;;;12.90;99.90;;;;;;5115337;28;20132;-60
2020/12/18 11:47:51;;;;;;;0.80;0.30;;;12.90;99.90;;;;;;5090761;28;20050;-60
2020/12/18 11:50:17;;;;;;;5.93;0.83;;;12.90;99.90;;;;;;5114372;28;20039;-59
2020/12/18 11:52:42;;;;;;;2.10;0.67;;;12.90;99.90;;;;;;5094829;28;20138;-57
2020/12/18 11:55:08;;;;;;;3.23;0.53;;;12.90;99.90;;;;;;5096693;28;20032;-57
2020/12/18 11:57:34;;;;;;;1.70;0.87;;;13.00;99.90;;;;;;5111609;28;20043;-58
2020/12/18 11:59:59;;;;;;;4.47;1.43;;;13.00;99.90;;;;;;5108346;28;20341;-58
2020/12/18 12:02:25;;;;;;;2.27;0.97;;;13.00;99.90;;;;;;5109240;28;20024;-58
2020/12/18 12:04:51;;;;;;;5.67;0.70;;;13.00;99.90;;;;;;5108732;28;20028;-57
2020/12/18 12:07:16;;;;;;;4.40;1.33;;;13.00;99.90;;;;;;5115934;28;20084;-57
2020/12/18 12:09:42;;;;;;;2.70;0.77;;;13.00;99.90;;;;;;5114714;28;20028;-57
2020/12/18 12:12:11;;;;;;;1.40;0.40;;;13.00;99.90;;;;;;5115442;28;20035;-58
2020/12/18 12:14:37;;;;;;;1.63;0.70;;;13.00;99.90;;;;;;5115154;28;20034;-58
2020/12/18 12:17:03;;;;;;;3.80;0.60;;;13.10;99.90;;;;;;5113478;28;20024;-59
2020/12/18 12:19:30;;;;;;;2.73;0.60;;;13.00;99.90;;;;;;5103543;28;20081;-58
2020/12/18 12:21:56;;;;;;;2.97;0.93;;;13.00;99.90;;;;;;5111675;28;20341;-58
2020/12/18 12:24:23;;;;;;;2.23;0.80;;;13.00;99.90;;;;;;5105203;28;20035;-59
2020/12/18 12:26:49;;;;;;;2.73;1.00;;;13.00;99.90;;;;;;5114952;28;20035;-59
2020/12/18 12:29:15;;;;;;;1.50;0.50;;;13.00;99.90;;;;;;5115200;28;20425;-58
2020/12/18 12:31:41;;;;;;;1.40;0.50;;;13.00;99.90;;;;;;5107634;28;20038;-58
2020/12/18 12:34:06;;;;;;;2.47;0.30;;;13.00;99.90;;;;;;5114786;28;20070;-58
2020/12/18 12:36:32;;;;;;;1.97;0.60;;;13.00;99.90;;;;;;5113132;28;20449;-58
2020/12/18 12:38:58;;;;;;;2.57;1.00;;;13.00;99.90;;;;;;5090953;28;20194;-57
2020/12/18 12:41:24;;;;;;;1.07;0.47;;;13.00;99.90;;;;;;5102311;28;20345;-58
2020/12/18 12:43:50;;;;;;;3.47;1.27;;;13.00;99.90;;;;;;5114326;28;20445;-58
2020/12/18 12:46:16;;;;;;;0.97;0.40;;;13.00;99.90;;;;;;5092504;28;20365;-59
2020/12/18 12:48:42;;;;;;;4.13;0.83;;;13.00;99.90;;;;;;5109541;28;20038;-59
2020/12/18 12:51:08;;;;;;;2.90;0.47;;;13.00;99.90;;;;;;5115783;28;20501;-58